Time;durP1;ratioP1;P1;durP2;ratioP2;P2;SDS_P1;SDS_P2;PMS_P1;PMS_P2;Temp;Humidity;BMP_temperature;BMP_pressure;BME280_temperature;BME280_humidity;BME280_pressure;Samples;Min_cycle;Max_cycle;Signal;HPM_P1;HPM_P2
2021/08/28 00:02:02;;;;;;;14.43;3.67;;;;;;;;;;5031630;28;20111;-68
2021/08/28 00:04:28;;;;;;;17.45;4.20;;;;;;;;;;5024968;28;20045;-68
2021/08/28 00:06:54;;;;;;;11.18;3.15;;;;;;;;;;5032949;28;20076;-68
2021/08/28 00:09:20;;;;;;;11.18;3.40;;;;;;;;;;5026574;28;20742;-68
2021/08/28 00:11:47;;;;;;;14.68;3.75;;;;;;;;;;5039970;28;20155;-68
2021/08/28 00:14:13;;;;;;;13.10;3.83;;;;;;;;;;5025361;28;20052;-68
2021/08/28 00:16:39;;;;;;;10.15;4.07;;;;;;;;;;5034882;28;20080;-68
2021/08/28 00:19:05;;;;;;;13.52;4.20;;;;;;;;;;5029980;28;20075;-68
2021/08/28 00:21:34;;;;;;;13.07;3.35;;;;;;;;;;5033222;28;20044;-68
2021/08/28 00:24:00;;;;;;;15.70;3.75;;;;;;;;;;5028508;28;20102;-68
2021/08/28 00:26:26;;;;;;;13.63;4.47;;;;;;;;;;5031530;28;20041;-68
2021/08/28 00:28:52;;;;;;;13.00;3.88;;;;;;;;;;5036551;28;20120;-68
2021/08/28 00:31:18;;;;;;;11.60;3.95;;;;;;;;;;5033554;28;20103;-68
2021/08/28 00:33:44;;;;;;;14.90;4.25;;;;;;;;;;5037093;28;20136;-68
2021/08/28 00:36:10;;;;;;;13.57;3.80;;;;;;;;;;5030166;28;20124;-68
2021/08/28 00:38:36;;;;;;;9.77;3.50;;;;;;;;;;5035073;28;20470;-68
2021/08/28 00:41:02;;;;;;;12.13;3.78;;;;;;;;;;5034249;28;20511;-68
2021/08/28 00:43:30;;;;;;;9.82;3.15;;;;;;;;;;5033916;28;20450;-68
2021/08/28 00:45:56;;;;;;;17.02;3.40;;;;;;;;;;5035011;28;20117;-68
2021/08/28 00:48:22;;;;;;;14.80;3.70;;;;;;;;;;5034561;28;20045;-68
2021/08/28 00:50:48;;;;;;;13.07;3.60;;;;;;;;;;5029948;28;20057;-68
2021/08/28 00:53:16;;;;;;;12.57;3.85;;;;;;;;;;5032410;28;20045;-68
2021/08/28 00:55:46;;;;;;;13.65;3.80;;;;;;;;;;5034070;28;20506;-68
2021/08/28 00:58:12;;;;;;;14.65;3.65;;;;;;;;;;5036952;28;20033;-68
2021/08/28 01:00:41;;;;;;;16.88;4.20;;;;;;;;;;5034453;28;20041;-68
2021/08/28 01:03:08;;;;;;;10.85;3.75;;;;;;;;;;5032225;28;20069;-68
2021/08/28 01:05:37;;;;;;;12.32;4.20;;;;;;;;;;5031972;28;20314;-68
2021/08/28 01:08:15;;;;;;;16.17;4.43;;;;;;;;;;5031274;28;20127;-68
2021/08/28 01:10:43;;;;;;;13.23;3.75;;;;;;;;;;5033295;28;20101;-68
2021/08/28 01:13:12;;;;;;;13.77;3.75;;;;;;;;;;5030399;28;20060;-68
2021/08/28 01:15:39;;;;;;;10.82;3.95;;;;;;;;;;5035251;28;20040;-68
2021/08/28 01:18:06;;;;;;;12.82;3.88;;;;;;;;;;5025981;28;20045;-68
2021/08/28 01:20:32;;;;;;;10.18;4.03;;;;;;;;;;5035345;28;20049;-68
2021/08/28 01:23:01;;;;;;;12.95;4.10;;;;;;;;;;5029030;28;20033;-68
2021/08/28 01:25:27;;;;;;;12.15;4.60;;;;;;;;;;5041881;28;20190;-68
2021/08/28 01:27:57;;;;;;;13.32;4.43;;;;;;;;;;5032464;28;20621;-68
2021/08/28 01:30:23;;;;;;;16.48;4.50;;;;;;;;;;5041644;28;20071;-68
2021/08/28 01:32:50;;;;;;;10.63;4.45;;;;;;;;;;5028299;28;20045;-68
2021/08/28 01:35:16;;;;;;;10.95;4.97;;;;;;;;;;5034272;28;20033;-68
2021/08/28 01:37:44;;;;;;;13.25;5.00;;;;;;;;;;5026714;28;20064;-69
2021/08/28 01:40:11;;;;;;;14.00;5.13;;;;;;;;;;5031492;28;20110;-69
2021/08/28 01:42:38;;;;;;;12.98;4.68;;;;;;;;;;5025799;28;20049;-69
2021/08/28 01:45:04;;;;;;;10.93;5.30;;;;;;;;;;5032065;28;20056;-69
2021/08/28 01:47:30;;;;;;;9.40;4.50;;;;;;;;;;5028938;28;20049;-70
2021/08/28 01:49:57;;;;;;;12.35;4.55;;;;;;;;;;5039651;28;20426;-70
2021/08/28 01:52:23;;;;;;;14.05;4.90;;;;;;;;;;5032817;28;20464;-69
2021/08/28 01:54:50;;;;;;;10.25;4.50;;;;;;;;;;5031126;28;20124;-69
2021/08/28 01:57:16;;;;;;;10.45;4.53;;;;;;;;;;5036185;28;20128;-69
2021/08/28 01:59:42;;;;;;;14.55;4.80;;;;;;;;;;5014184;28;20469;-69
2021/08/28 02:02:08;;;;;;;13.65;5.40;;;;;;;;;;5033971;28;20037;-69
2021/08/28 02:04:35;;;;;;;12.95;5.32;;;;;;;;;;5012535;28;20037;-69
2021/08/28 02:07:20;;;;;;;11.38;4.60;;;;;;;;;;5040971;28;20057;-69
2021/08/28 02:09:53;;;;;;;12.43;4.80;;;;;;;;;;5027110;28;20045;-69
2021/08/28 02:12:22;;;;;;;14.77;5.00;;;;;;;;;;5038195;28;20103;-69
2021/08/28 02:14:53;;;;;;;14.07;4.85;;;;;;;;;;5024137;28;20407;-69
2021/08/28 02:17:19;;;;;;;17.92;4.53;;;;;;;;;;5035520;28;20037;-69
2021/08/28 02:19:47;;;;;;;10.18;4.97;;;;;;;;;;5025001;28;20053;-69
2021/08/28 02:22:19;;;;;;;9.93;4.65;;;;;;;;;;5035907;28;20056;-69
2021/08/28 02:24:47;;;;;;;14.68;4.78;;;;;;;;;;5031276;28;20232;-69
2021/08/28 02:27:28;;;;;;;14.70;5.15;;;;;;;;;;5036017;28;20291;-69
2021/08/28 02:29:56;;;;;;;13.27;4.93;;;;;;;;;;5023719;28;20095;-69
2021/08/28 02:32:23;;;;;;;15.23;5.53;;;;;;;;;;5033601;28;20086;-69
2021/08/28 02:34:51;;;;;;;13.18;5.10;;;;;;;;;;5026469;28;20042;-69
2021/08/28 02:37:18;;;;;;;12.32;5.35;;;;;;;;;;5033361;28;20041;-69
2021/08/28 02:39:45;;;;;;;12.13;5.32;;;;;;;;;;5027173;28;20080;-69
2021/08/28 02:42:12;;;;;;;12.80;5.07;;;;;;;;;;5028620;28;20389;-69
2021/08/28 02:44:39;;;;;;;9.98;4.85;;;;;;;;;;5023166;28;20069;-69
2021/08/28 02:47:06;;;;;;;18.10;5.70;;;;;;;;;;5029585;28;20083;-69
2021/08/28 02:49:33;;;;;;;10.02;4.60;;;;;;;;;;5021546;28;20042;-69
2021/08/28 02:52:00;;;;;;;11.50;4.90;;;;;;;;;;5027629;28;20429;-69
2021/08/28 02:54:27;;;;;;;10.95;4.53;;;;;;;;;;5031268;28;20052;-69
2021/08/28 02:56:53;;;;;;;10.30;4.10;;;;;;;;;;5029152;28;20037;-69
2021/08/28 02:59:20;;;;;;;10.00;4.68;;;;;;;;;;5034596;28;20060;-69
2021/08/28 03:01:46;;;;;;;9.05;4.20;;;;;;;;;;5029294;28;20605;-69
2021/08/28 03:04:16;;;;;;;10.52;4.47;;;;;;;;;;5035706;28;20041;-69
2021/08/28 03:06:42;;;;;;;7.53;3.55;;;;;;;;;;5030866;28;20045;-69
2021/08/28 03:09:08;;;;;;;13.30;4.28;;;;;;;;;;5019597;28;20067;-69
2021/08/28 03:11:34;;;;;;;9.57;3.78;;;;;;;;;;5029764;28;20083;-69
2021/08/28 03:14:01;;;;;;;9.73;3.72;;;;;;;;;;5032229;28;20045;-69
2021/08/28 03:16:29;;;;;;;8.57;3.38;;;;;;;;;;5029440;28;20533;-69
2021/08/28 03:18:56;;;;;;;9.23;3.63;;;;;;;;;;5034651;28;20041;-69
2021/08/28 03:21:23;;;;;;;6.10;3.78;;;;;;;;;;5029019;28;20037;-69
2021/08/28 03:23:50;;;;;;;9.50;4.00;;;;;;;;;;5033850;28;20037;-69
2021/08/28 03:26:18;;;;;;;6.80;3.60;;;;;;;;;;5028706;28;20049;-69
2021/08/28 03:28:44;;;;;;;8.30;3.83;;;;;;;;;;5033884;28;20052;-69
2021/08/28 03:31:11;;;;;;;13.43;3.97;;;;;;;;;;5033247;28;20064;-69
2021/08/28 03:33:37;;;;;;;10.50;3.95;;;;;;;;;;5028945;28;20037;-69
2021/08/28 03:36:04;;;;;;;12.30;3.85;;;;;;;;;;5034695;28;20041;-69
2021/08/28 03:38:30;;;;;;;10.20;4.05;;;;;;;;;;5028605;28;20474;-69
2021/08/28 03:40:56;;;;;;;8.32;3.47;;;;;;;;;;5031454;28;20047;-69
2021/08/28 03:43:22;;;;;;;7.13;3.38;;;;;;;;;;5028068;28;20381;-69
2021/08/28 03:45:49;;;;;;;15.13;4.43;;;;;;;;;;5033879;28;20037;-69
2021/08/28 03:48:16;;;;;;;8.40;3.78;;;;;;;;;;5030825;28;20075;-69
2021/08/28 03:50:42;;;;;;;16.73;4.60;;;;;;;;;;5033409;28;20068;-69
2021/08/28 03:53:09;;;;;;;9.45;3.83;;;;;;;;;;5011796;28;20061;-69
2021/08/28 03:55:35;;;;;;;12.50;4.55;;;;;;;;;;5032826;28;20049;-69
2021/08/28 03:58:01;;;;;;;12.95;4.68;;;;;;;;;;5026199;28;20040;-69
2021/08/28 04:00:28;;;;;;;11.60;4.97;;;;;;;;;;5034222;28;20064;-69
2021/08/28 04:02:54;;;;;;;15.35;5.20;;;;;;;;;;5032157;28;20059;-67
2021/08/28 04:05:20;;;;;;;13.80;4.88;;;;;;;;;;5037769;28;20049;-67
2021/08/28 04:07:46;;;;;;;13.80;5.18;;;;;;;;;;5027543;28;20341;-68
2021/08/28 04:10:12;;;;;;;11.75;4.80;;;;;;;;;;5035407;28;20041;-68
2021/08/28 04:12:39;;;;;;;13.40;4.72;;;;;;;;;;5032719;28;20037;-68
2021/08/28 04:15:06;;;;;;;14.48;5.90;;;;;;;;;;5028216;28;20041;-67
2021/08/28 04:17:32;;;;;;;13.10;5.40;;;;;;;;;;5034113;28;20037;-67
2021/08/28 04:19:58;;;;;;;9.98;5.00;;;;;;;;;;5034717;28;20110;-67
2021/08/28 04:22:24;;;;;;;12.23;5.57;;;;;;;;;;5031113;28;20532;-67
2021/08/28 04:24:51;;;;;;;12.30;5.95;;;;;;;;;;5010387;28;20048;-68
2021/08/28 04:27:17;;;;;;;9.85;4.80;;;;;;;;;;5036696;28;20029;-68
2021/08/28 04:29:43;;;;;;;15.48;6.40;;;;;;;;;;5029477;28;20044;-68
2021/08/28 04:32:09;;;;;;;14.35;6.35;;;;;;;;;;5036829;28;20033;-68
2021/08/28 04:34:35;;;;;;;11.18;6.35;;;;;;;;;;5025410;28;20064;-68
2021/08/28 04:37:01;;;;;;;15.65;6.60;;;;;;;;;;5040430;28;20509;-68
2021/08/28 04:39:27;;;;;;;15.65;6.57;;;;;;;;;;5029130;28;20116;-68
2021/08/28 04:41:53;;;;;;;11.85;6.03;;;;;;;;;;5033673;28;20049;-68
2021/08/28 04:44:20;;;;;;;17.13;6.68;;;;;;;;;;5028022;28;20060;-68
2021/08/28 04:46:46;;;;;;;17.55;7.75;;;;;;;;;;5034869;28;20112;-68
2021/08/28 04:49:12;;;;;;;15.02;6.65;;;;;;;;;;5030246;28;20488;-68
2021/08/28 04:51:38;;;;;;;16.13;6.57;;;;;;;;;;5027082;28;20045;-68
2021/08/28 04:54:05;;;;;;;13.10;6.10;;;;;;;;;;5034333;28;20052;-68
2021/08/28 04:56:31;;;;;;;10.90;6.00;;;;;;;;;;5024210;28;20375;-68
2021/08/28 04:58:57;;;;;;;13.25;6.68;;;;;;;;;;5033843;28;20397;-68
2021/08/28 05:01:23;;;;;;;13.63;6.78;;;;;;;;;;5025163;28;20043;-68
2021/08/28 05:03:49;;;;;;;10.48;5.75;;;;;;;;;;5035086;28;20052;-68
2021/08/28 05:06:15;;;;;;;14.35;6.18;;;;;;;;;;5028508;28;20041;-68
2021/08/28 05:08:41;;;;;;;12.48;6.43;;;;;;;;;;5032695;28;20103;-68
2021/08/28 05:11:07;;;;;;;13.63;6.18;;;;;;;;;;5032370;28;20038;-68
2021/08/28 05:13:33;;;;;;;12.48;6.22;;;;;;;;;;5035738;28;20045;-68
2021/08/28 05:15:59;;;;;;;13.23;5.95;;;;;;;;;;5031188;28;20037;-68
2021/08/28 05:18:25;;;;;;;14.48;6.00;;;;;;;;;;5035265;28;20039;-68
2021/08/28 05:20:51;;;;;;;10.80;5.45;;;;;;;;;;5032427;28;20041;-68
2021/08/28 05:23:17;;;;;;;15.32;6.78;;;;;;;;;;5035339;28;20050;-68
2021/08/28 05:25:43;;;;;;;9.07;5.38;;;;;;;;;;5029954;28;20041;-68
2021/08/28 05:28:09;;;;;;;12.82;6.63;;;;;;;;;;5036771;28;20564;-68
2021/08/28 05:30:35;;;;;;;11.38;6.32;;;;;;;;;;5034804;28;20037;-68
2021/08/28 05:33:02;;;;;;;15.80;6.45;;;;;;;;;;5029001;28;20044;-68
2021/08/28 05:35:28;;;;;;;14.55;5.82;;;;;;;;;;5035914;28;20041;-68
2021/08/28 05:37:54;;;;;;;15.00;6.28;;;;;;;;;;5010508;28;20343;-68
2021/08/28 05:40:20;;;;;;;16.42;6.15;;;;;;;;;;5031824;28;20497;-68
2021/08/28 05:42:46;;;;;;;15.30;5.95;;;;;;;;;;5027662;28;20348;-68
2021/08/28 05:45:12;;;;;;;13.20;5.95;;;;;;;;;;5032326;28;20077;-68
2021/08/28 05:47:38;;;;;;;13.18;5.95;;;;;;;;;;5025921;28;20045;-68
2021/08/28 05:50:05;;;;;;;17.75;7.00;;;;;;;;;;5015378;28;20050;-68
2021/08/28 05:52:31;;;;;;;18.95;6.45;;;;;;;;;;5029051;28;20086;-68
2021/08/28 05:54:57;;;;;;;14.10;6.57;;;;;;;;;;5033803;28;20045;-68
2021/08/28 05:57:23;;;;;;;11.18;5.88;;;;;;;;;;5031084;28;20128;-68
2021/08/28 05:59:49;;;;;;;14.32;5.88;;;;;;;;;;5042387;28;20032;-68
2021/08/28 06:02:15;;;;;;;16.05;5.63;;;;;;;;;;5027909;28;20411;-67
2021/08/28 06:04:42;;;;;;;14.07;5.53;;;;;;;;;;5035785;28;20038;-68
2021/08/28 06:07:08;;;;;;;15.15;5.47;;;;;;;;;;5037298;28;20072;-68
2021/08/28 06:09:34;;;;;;;13.00;5.80;;;;;;;;;;5028076;28;20034;-68
2021/08/28 06:12:01;;;;;;;8.27;5.38;;;;;;;;;;5033330;28;20482;-68
2021/08/28 06:14:27;;;;;;;13.02;5.38;;;;;;;;;;5016811;28;20199;-67
2021/08/28 06:16:53;;;;;;;12.88;5.07;;;;;;;;;;5036430;28;20056;-67
2021/08/28 06:19:20;;;;;;;12.13;5.18;;;;;;;;;;5029109;28;20437;-67
2021/08/28 06:21:46;;;;;;;15.60;5.30;;;;;;;;;;5041894;28;20472;-67
2021/08/28 06:24:12;;;;;;;12.15;5.72;;;;;;;;;;5035297;28;20062;-68
2021/08/28 06:26:38;;;;;;;12.73;5.65;;;;;;;;;;5038729;28;20469;-67
2021/08/28 06:29:05;;;;;;;12.98;5.07;;;;;;;;;;5032680;28;20466;-67
2021/08/28 06:31:31;;;;;;;15.38;6.45;;;;;;;;;;5034924;28;20068;-67
2021/08/28 06:33:57;;;;;;;16.17;6.35;;;;;;;;;;5031745;28;20098;-67
2021/08/28 06:36:23;;;;;;;13.35;5.82;;;;;;;;;;5039221;28;20109;-67
2021/08/28 06:38:49;;;;;;;17.20;6.28;;;;;;;;;;5031646;28;20040;-67
2021/08/28 06:41:15;;;;;;;13.73;5.13;;;;;;;;;;5033203;28;20095;-67
2021/08/28 06:43:41;;;;;;;15.45;5.57;;;;;;;;;;5028668;28;20036;-67
2021/08/28 06:46:08;;;;;;;12.32;5.32;;;;;;;;;;5035040;28;20064;-68
2021/08/28 06:48:34;;;;;;;16.95;5.90;;;;;;;;;;5036745;28;20161;-67
2021/08/28 06:51:00;;;;;;;11.82;5.25;;;;;;;;;;5031072;28;20053;-67
2021/08/28 06:53:26;;;;;;;15.60;5.85;;;;;;;;;;5036329;28;20033;-67
2021/08/28 06:55:52;;;;;;;13.45;5.13;;;;;;;;;;5030961;28;20077;-67
2021/08/28 06:58:18;;;;;;;13.73;5.10;;;;;;;;;;5036193;28;20085;-67
2021/08/28 07:00:44;;;;;;;11.63;5.35;;;;;;;;;;5026248;28;20065;-67
2021/08/28 07:03:10;;;;;;;9.68;5.38;;;;;;;;;;5035322;28;20037;-67
2021/08/28 07:05:36;;;;;;;11.38;4.70;;;;;;;;;;5036690;28;20082;-66
2021/08/28 07:08:03;;;;;;;13.15;5.05;;;;;;;;;;5035053;28;20048;-66
2021/08/28 07:10:29;;;;;;;9.68;4.95;;;;;;;;;;5030422;28;20091;-67
2021/08/28 07:12:55;;;;;;;11.95;5.30;;;;;;;;;;5036722;28;20033;-67
2021/08/28 07:15:21;;;;;;;14.15;4.78;;;;;;;;;;5033857;28;20033;-67
2021/08/28 07:17:47;;;;;;;12.05;4.55;;;;;;;;;;5036563;28;20037;-67
2021/08/28 07:20:13;;;;;;;15.68;5.40;;;;;;;;;;5029768;28;20067;-67
2021/08/28 07:22:39;;;;;;;8.65;4.88;;;;;;;;;;5021792;28;20064;-67
2021/08/28 07:25:06;;;;;;;7.93;4.75;;;;;;;;;;5032569;28;20422;-67
2021/08/28 07:27:32;;;;;;;12.32;4.53;;;;;;;;;;5027961;28;20061;-67
2021/08/28 07:29:58;;;;;;;6.90;4.32;;;;;;;;;;5036366;28;20504;-67
2021/08/28 07:32:24;;;;;;;8.23;4.38;;;;;;;;;;5036375;28;20485;-67
2021/08/28 07:34:54;;;;;;;9.25;4.95;;;;;;;;;;5033771;28;20071;-67
2021/08/28 07:37:20;;;;;;;8.93;4.03;;;;;;;;;;5025187;28;20102;-67
2021/08/28 07:39:46;;;;;;;10.45;4.53;;;;;;;;;;5033058;28;20045;-67
2021/08/28 07:42:13;;;;;;;7.95;4.25;;;;;;;;;;5029776;28;20409;-67
2021/08/28 07:44:39;;;;;;;8.73;4.15;;;;;;;;;;5031980;28;20227;-67
2021/08/28 07:47:05;;;;;;;7.38;3.80;;;;;;;;;;5032494;28;20036;-67
2021/08/28 07:49:31;;;;;;;6.68;3.95;;;;;;;;;;5031720;28;20146;-68
2021/08/28 07:51:57;;;;;;;9.57;3.67;;;;;;;;;;5030114;28;20501;-68
2021/08/28 07:54:23;;;;;;;7.60;3.70;;;;;;;;;;5028284;28;20146;-68
2021/08/28 07:56:49;;;;;;;9.93;3.67;;;;;;;;;;5028915;28;20415;-67
2021/08/28 07:59:15;;;;;;;9.43;3.90;;;;;;;;;;5038111;28;20049;-67
2021/08/28 08:01:41;;;;;;;9.55;3.70;;;;;;;;;;5031737;28;20033;-67
2021/08/28 08:04:07;;;;;;;6.50;3.20;;;;;;;;;;5030834;28;20108;-67
2021/08/28 08:06:33;;;;;;;7.80;3.10;;;;;;;;;;5029970;28;20508;-67
2021/08/28 08:08:59;;;;;;;9.40;3.72;;;;;;;;;;5026318;28;20073;-68
2021/08/28 08:11:26;;;;;;;5.80;3.40;;;;;;;;;;5038957;28;20107;-68
2021/08/28 08:13:52;;;;;;;7.93;3.40;;;;;;;;;;5024173;28;20137;-68
2021/08/28 08:16:18;;;;;;;8.27;3.25;;;;;;;;;;5026990;28;20200;-68
2021/08/28 08:18:44;;;;;;;7.38;3.35;;;;;;;;;;5028517;28;20516;-68
2021/08/28 08:21:10;;;;;;;9.30;3.05;;;;;;;;;;5031980;28;20362;-68
2021/08/28 08:23:36;;;;;;;6.32;2.83;;;;;;;;;;5023195;28;20091;-68
2021/08/28 08:26:02;;;;;;;7.05;2.65;;;;;;;;;;5032725;28;20116;-68
2021/08/28 08:28:28;;;;;;;6.82;3.00;;;;;;;;;;5026949;28;20072;-68
2021/08/28 08:30:54;;;;;;;6.20;2.88;;;;;;;;;;5030407;28;20037;-68
2021/08/28 08:33:20;;;;;;;6.07;2.80;;;;;;;;;;5029927;28;20419;-68
2021/08/28 08:35:46;;;;;;;7.10;2.70;;;;;;;;;;5029734;28;20043;-68
2021/08/28 08:38:12;;;;;;;8.40;3.25;;;;;;;;;;5025115;28;20041;-68
2021/08/28 08:40:38;;;;;;;8.82;3.42;;;;;;;;;;5035800;28;20139;-68
2021/08/28 08:43:07;;;;;;;4.95;2.60;;;;;;;;;;5030527;28;20050;-68
2021/08/28 08:45:33;;;;;;;6.75;2.67;;;;;;;;;;5027584;28;20052;-67
2021/08/28 08:48:00;;;;;;;5.80;2.65;;;;;;;;;;5035917;28;20072;-67
2021/08/28 08:50:27;;;;;;;7.97;2.60;;;;;;;;;;5028202;28;20064;-67
2021/08/28 08:52:54;;;;;;;2.85;1.88;;;;;;;;;;5035580;28;20076;-67
2021/08/28 08:55:20;;;;;;;6.40;2.53;;;;;;;;;;5028439;28;20041;-67
2021/08/28 08:57:46;;;;;;;6.45;2.83;;;;;;;;;;5043080;28;20028;-67
2021/08/28 09:00:14;;;;;;;4.97;2.33;;;;;;;;;;5034906;28;20556;-68
2021/08/28 09:02:40;;;;;;;7.47;2.47;;;;;;;;;;5033416;28;20053;-67
2021/08/28 09:05:06;;;;;;;4.82;2.10;;;;;;;;;;5035418;28;20077;-67
2021/08/28 09:07:32;;;;;;;5.15;2.38;;;;;;;;;;5034289;28;20135;-66
2021/08/28 09:09:58;;;;;;;9.63;6.55;;;;;;;;;;5031357;28;20045;-67
2021/08/28 09:12:33;;;;;;;8.95;6.32;;;;;;;;;;5035677;28;20476;-67
2021/08/28 09:15:00;;;;;;;4.95;2.15;;;;;;;;;;5031329;28;20124;-67
2021/08/28 09:17:26;;;;;;;4.43;2.10;;;;;;;;;;5035695;28;20045;-67
2021/08/28 09:19:52;;;;;;;4.57;1.75;;;;;;;;;;5029857;28;20540;-67
2021/08/28 09:22:22;;;;;;;3.72;2.22;;;;;;;;;;5036612;28;20131;-66
2021/08/28 09:24:49;;;;;;;6.78;2.70;;;;;;;;;;5035781;28;20340;-67
2021/08/28 09:27:33;;;;;;;5.05;2.20;;;;;;;;;;5033846;28;20046;-67
2021/08/28 09:30:00;;;;;;;5.60;2.00;;;;;;;;;;5037345;28;20473;-66
2021/08/28 09:32:26;;;;;;;6.85;2.17;;;;;;;;;;5033389;28;20046;-67
2021/08/28 09:34:52;;;;;;;4.13;1.70;;;;;;;;;;5039290;28;20125;-67
2021/08/28 09:37:18;;;;;;;3.80;2.22;;;;;;;;;;5030031;28;20041;-67
2021/08/28 09:39:48;;;;;;;3.47;1.70;;;;;;;;;;5041318;28;20041;-67
2021/08/28 09:42:19;;;;;;;4.63;1.77;;;;;;;;;;5033123;28;20128;-67
2021/08/28 09:44:46;;;;;;;5.85;1.80;;;;;;;;;;5039310;28;20529;-67
2021/08/28 09:47:17;;;;;;;6.47;4.18;;;;;;;;;;5031061;28;20049;-68
2021/08/28 09:49:44;;;;;;;3.38;1.42;;;;;;;;;;5038336;28;20052;-68
2021/08/28 09:52:11;;;;;;;4.72;1.83;;;;;;;;;;5029607;28;20057;-68
2021/08/28 09:54:38;;;;;;;5.70;1.83;;;;;;;;;;5032420;28;20033;-68
2021/08/28 09:57:05;;;;;;;5.43;1.92;;;;;;;;;;5033803;28;20158;-68
2021/08/28 09:59:31;;;;;;;4.93;1.65;;;;;;;;;;5039089;28;20096;-68
2021/08/28 10:01:57;;;;;;;5.80;1.73;;;;;;;;;;5026509;28;20264;-68
2021/08/28 10:04:23;;;;;;;3.25;1.50;;;;;;;;;;5035568;28;20377;-68
2021/08/28 10:06:50;;;;;;;4.47;1.60;;;;;;;;;;5026249;28;20041;-68
2021/08/28 10:09:18;;;;;;;3.95;1.88;;;;;;;;;;5034860;28;20037;-68
2021/08/28 10:11:49;;;;;;;5.60;1.88;;;;;;;;;;5027183;28;20037;-66
2021/08/28 10:14:20;;;;;;;4.13;1.63;;;;;;;;;;5037946;28;20112;-68
2021/08/28 10:16:48;;;;;;;3.75;1.65;;;;;;;;;;5040721;28;20029;-69
2021/08/28 10:19:18;;;;;;;6.05;1.60;;;;;;;;;;5028548;28;20033;-68
2021/08/28 10:21:44;;;;;;;5.45;1.40;;;;;;;;;;5036268;28;20048;-67
2021/08/28 10:24:13;;;;;;;4.35;1.38;;;;;;;;;;5026913;28;20045;-67
2021/08/28 10:26:43;;;;;;;4.22;1.42;;;;;;;;;;5037704;28;20087;-67
2021/08/28 10:29:13;;;;;;;4.75;1.60;;;;;;;;;;5026280;28;20041;-69
2021/08/28 10:31:39;;;;;;;6.40;1.70;;;;;;;;;;5033900;28;20045;-68
2021/08/28 10:34:05;;;;;;;3.97;1.42;;;;;;;;;;5031026;28;20409;-68
2021/08/28 10:36:31;;;;;;;6.32;1.75;;;;;;;;;;5030241;28;20069;-68
2021/08/28 10:38:58;;;;;;;5.15;1.30;;;;;;;;;;5025951;28;20292;-68
2021/08/28 10:41:24;;;;;;;4.75;1.38;;;;;;;;;;5035850;28;20445;-68
2021/08/28 10:43:51;;;;;;;4.72;1.50;;;;;;;;;;5029728;28;20111;-68
2021/08/28 10:46:21;;;;;;;3.78;1.17;;;;;;;;;;5036648;28;20037;-68
2021/08/28 10:48:54;;;;;;;5.28;1.23;;;;;;;;;;5027943;28;20038;-68
2021/08/28 10:51:23;;;;;;;6.45;1.48;;;;;;;;;;5036428;28;20077;-68
2021/08/28 10:53:54;;;;;;;4.15;1.50;;;;;;;;;;5028777;28;20495;-67
2021/08/28 10:56:20;;;;;;;6.10;1.42;;;;;;;;;;5034647;28;20029;-68
2021/08/28 10:58:46;;;;;;;4.32;1.40;;;;;;;;;;5031406;28;20056;-68
2021/08/28 11:01:12;;;;;;;5.82;1.30;;;;;;;;;;5034018;28;20091;-68
2021/08/28 11:03:39;;;;;;;4.32;1.38;;;;;;;;;;5039049;28;20045;-68
2021/08/28 11:06:14;;;;;;;5.10;1.27;;;;;;;;;;5026639;28;20045;-68
2021/08/28 11:08:54;;;;;;;2.95;0.93;;;;;;;;;;5030907;28;20501;-68
2021/08/28 11:11:26;;;;;;;7.50;1.95;;;;;;;;;;5033308;28;20114;-68
2021/08/28 11:14:01;;;;;;;8.02;1.30;;;;;;;;;;5036297;28;20052;-68
2021/08/28 11:16:51;;;;;;;3.13;1.13;;;;;;;;;;5031651;28;20520;-68
2021/08/28 11:19:20;;;;;;;5.28;0.98;;;;;;;;;;5024502;28;20314;-67
2021/08/28 11:21:47;;;;;;;5.35;1.73;;;;;;;;;;5038966;28;20493;-69
2021/08/28 11:24:17;;;;;;;3.10;1.08;;;;;;;;;;5032309;28;20420;-69
2021/08/28 11:26:47;;;;;;;6.78;1.20;;;;;;;;;;5028909;28;20579;-68
2021/08/28 11:29:20;;;;;;;3.70;1.20;;;;;;;;;;5037778;28;20446;-68
2021/08/28 11:31:47;;;;;;;6.65;1.23;;;;;;;;;;5030930;28;20107;-68
2021/08/28 11:34:13;;;;;;;6.65;1.40;;;;;;;;;;5033826;28;20060;-67
2021/08/28 11:36:40;;;;;;;5.72;1.40;;;;;;;;;;5025475;28;20037;-67
2021/08/28 11:39:21;;;;;;;6.05;1.27;;;;;;;;;;5040353;28;20586;-68
2021/08/28 11:41:47;;;;;;;3.65;1.23;;;;;;;;;;5028426;28;20045;-69
2021/08/28 11:44:13;;;;;;;6.57;1.10;;;;;;;;;;5032408;28;20071;-69
2021/08/28 11:46:41;;;;;;;7.82;1.40;;;;;;;;;;5031455;28;20470;-68
2021/08/28 11:49:07;;;;;;;3.33;0.85;;;;;;;;;;5030538;28;20064;-68
2021/08/28 11:51:36;;;;;;;5.07;1.10;;;;;;;;;;5028091;28;20106;-67
2021/08/28 11:54:02;;;;;;;5.25;1.38;;;;;;;;;;5033420;28;20143;-67
2021/08/28 11:56:35;;;;;;;6.40;1.20;;;;;;;;;;5029458;28;20480;-68
2021/08/28 11:59:03;;;;;;;5.95;1.45;;;;;;;;;;5034654;28;20045;-68
2021/08/28 12:01:33;;;;;;;4.65;1.05;;;;;;;;;;5023702;28;20375;-68
2021/08/28 12:04:02;;;;;;;4.68;0.95;;;;;;;;;;5032450;28;20111;-68
2021/08/28 12:06:29;;;;;;;6.88;1.65;;;;;;;;;;5030563;28;20041;-68
2021/08/28 12:08:55;;;;;;;6.70;1.23;;;;;;;;;;5038977;28;20401;-69
2021/08/28 12:11:22;;;;;;;4.60;1.30;;;;;;;;;;5025190;28;20083;-68
2021/08/28 12:13:49;;;;;;;3.28;1.10;;;;;;;;;;5030701;28;20476;-68
2021/08/28 12:16:28;;;;;;;3.45;1.10;;;;;;;;;;5033463;28;20069;-69
2021/08/28 12:19:07;;;;;;;4.35;1.05;;;;;;;;;;5019433;28;20060;-68
2021/08/28 12:21:46;;;;;;;4.15;1.10;;;;;;;;;;5034895;28;20052;-68
2021/08/28 12:24:13;;;;;;;8.27;1.30;;;;;;;;;;5034752;28;20037;-68
2021/08/28 12:26:41;;;;;;;4.25;0.98;;;;;;;;;;5036284;28;20068;-68
2021/08/28 12:29:07;;;;;;;3.40;0.90;;;;;;;;;;5038627;28;20049;-67
2021/08/28 12:31:33;;;;;;;5.85;1.13;;;;;;;;;;5039472;28;20040;-67
2021/08/28 12:34:18;;;;;;;2.83;0.98;;;;;;;;;;5029719;28;20045;-67
2021/08/28 12:36:44;;;;;;;;;;;;;;;;;;5040127;28;20150;-68
2021/08/28 12:39:10;;;;;;;3.78;0.93;;;;;;;;;;5032713;28;20372;-68
2021/08/28 12:41:36;;;;;;;3.05;0.90;;;;;;;;;;5036062;28;20115;-67
2021/08/28 12:44:03;;;;;;;3.33;0.68;;;;;;;;;;5027916;28;20049;-68
2021/08/28 12:46:29;;;;;;;2.83;0.55;;;;;;;;;;5041794;28;20049;-68
2021/08/28 12:49:08;;;;;;;5.70;0.73;;;;;;;;;;5036951;28;20141;-68
2021/08/28 12:51:34;;;;;;;4.50;1.30;;;;;;;;;;5036379;28;20350;-68
2021/08/28 12:54:00;;;;;;;4.28;0.82;;;;;;;;;;5031812;28;20133;-68
2021/08/28 12:56:27;;;;;;;4.35;1.00;;;;;;;;;;5043880;28;20113;-69
2021/08/28 12:58:53;;;;;;;4.90;0.90;;;;;;;;;;5028510;28;20478;-68
2021/08/28 13:01:19;;;;;;;3.95;1.05;;;;;;;;;;5040387;28;20529;-68
2021/08/28 13:03:48;;;;;;;3.38;0.90;;;;;;;;;;5027746;28;20055;-68
2021/08/28 13:06:22;;;;;;;2.53;0.90;;;;;;;;;;5037588;28;20125;-68
2021/08/28 13:08:48;;;;;;;3.67;1.00;;;;;;;;;;5031266;28;20057;-68
2021/08/28 13:11:18;;;;;;;2.90;0.77;;;;;;;;;;5019925;28;20037;-68
2021/08/28 13:14:00;;;;;;;1.95;0.88;;;;;;;;;;5032605;28;20505;-68
2021/08/28 13:16:26;;;;;;;3.28;0.75;;;;;;;;;;5037953;28;20059;-68
2021/08/28 13:19:08;;;;;;;2.85;1.20;;;;;;;;;;5031479;28;20045;-68
2021/08/28 13:21:34;;;;;;;2.80;1.15;;;;;;;;;;5039806;28;20076;-68
2021/08/28 13:24:08;;;;;;;3.08;1.02;;;;;;;;;;5035838;28;20120;-68
2021/08/28 13:26:34;;;;;;;2.50;1.10;;;;;;;;;;5039176;28;20053;-68
2021/08/28 13:29:00;;;;;;;5.03;1.38;;;;;;;;;;5036672;28;20517;-68
2021/08/28 13:31:26;;;;;;;3.65;1.08;;;;;;;;;;5028246;28;20128;-68
2021/08/28 13:34:01;;;;;;;2.58;1.27;;;;;;;;;;5039560;28;20032;-69
2021/08/28 13:36:28;;;;;;;3.20;0.98;;;;;;;;;;5027522;28;20029;-69
2021/08/28 13:38:54;;;;;;;2.50;1.00;;;;;;;;;;5039001;28;20051;-68
2021/08/28 13:41:21;;;;;;;5.22;0.88;;;;;;;;;;5029639;28;20499;-68
2021/08/28 13:43:47;;;;;;;3.90;1.40;;;;;;;;;;5033542;28;20042;-68
2021/08/28 13:46:13;;;;;;;2.63;1.17;;;;;;;;;;5030710;28;20041;-68
2021/08/28 13:48:40;;;;;;;4.05;1.45;;;;;;;;;;5034594;28;20501;-68
2021/08/28 13:51:06;;;;;;;5.68;1.00;;;;;;;;;;5034205;28;20080;-68
2021/08/28 13:53:32;;;;;;;2.75;1.00;;;;;;;;;;5037489;28;20094;-68
2021/08/28 13:55:58;;;;;;;3.22;1.20;;;;;;;;;;5033621;28;20120;-69
2021/08/28 13:58:24;;;;;;;3.17;1.30;;;;;;;;;;5037539;28;20083;-68
2021/08/28 14:00:50;;;;;;;4.28;1.02;;;;;;;;;;5029207;28;20041;-68
2021/08/28 14:03:17;;;;;;;2.78;1.23;;;;;;;;;;5033370;28;20371;-68
2021/08/28 14:05:43;;;;;;;6.28;1.10;;;;;;;;;;5027978;28;20406;-68
2021/08/28 14:08:09;;;;;;;2.75;1.10;;;;;;;;;;5030943;28;20091;-68
2021/08/28 14:10:35;;;;;;;3.30;1.00;;;;;;;;;;5034811;28;20041;-68
2021/08/28 14:13:02;;;;;;;3.28;0.80;;;;;;;;;;5025966;28;20045;-68
2021/08/28 14:15:28;;;;;;;2.97;1.10;;;;;;;;;;5037737;28;20076;-68
2021/08/28 14:17:54;;;;;;;3.75;0.60;;;;;;;;;;5026855;28;20124;-68
2021/08/28 14:20:20;;;;;;;3.08;0.82;;;;;;;;;;5034225;28;20040;-68
2021/08/28 14:22:47;;;;;;;1.38;0.68;;;;;;;;;;5028176;28;20730;-68
2021/08/28 14:25:14;;;;;;;3.25;1.00;;;;;;;;;;5033550;28;20033;-68
2021/08/28 14:27:40;;;;;;;3.10;0.70;;;;;;;;;;5033932;28;20603;-68
2021/08/28 14:30:07;;;;;;;4.28;0.98;;;;;;;;;;5033173;28;20041;-68
2021/08/28 14:32:33;;;;;;;3.63;1.23;;;;;;;;;;5026875;28;20056;-68
2021/08/28 14:34:59;;;;;;;5.25;1.10;;;;;;;;;;5035891;28;20066;-68
2021/08/28 14:37:25;;;;;;;2.88;0.85;;;;;;;;;;5026798;28;20044;-68
2021/08/28 14:39:51;;;;;;;1.85;0.73;;;;;;;;;;5020414;28;20052;-68